createdAt,value
2022-12-26T00:03:15.459Z,4.90
2022-12-26T00:05:42.423Z,2.90
2022-12-26T00:08:09.232Z,2.80
2022-12-26T00:10:36.026Z,2.90
2022-12-26T00:13:37.256Z,2.80
2022-12-26T00:15:50.071Z,2.90
2022-12-26T00:18:16.939Z,2.80
2022-12-26T00:20:43.750Z,2.80
2022-12-26T00:23:10.567Z,2.80
2022-12-26T00:25:37.435Z,2.80
2022-12-26T00:28:04.342Z,2.90
2022-12-26T00:30:31.134Z,2.80
2022-12-26T00:32:58.018Z,2.90
2022-12-26T00:35:24.830Z,2.80
2022-12-26T00:37:51.650Z,2.80
2022-12-26T00:40:18.545Z,2.70
2022-12-26T00:42:45.355Z,2.80
2022-12-26T00:45:12.188Z,2.90
2022-12-26T00:47:39.062Z,2.80
2022-12-26T00:50:12.577Z,2.80
2022-12-26T00:52:43.067Z,2.70
2022-12-26T00:55:10.741Z,2.80
2022-12-26T00:57:37.622Z,2.90
2022-12-26T01:00:05.862Z,2.80
2022-12-26T01:02:38.930Z,2.90
2022-12-26T01:05:07.850Z,2.80
2022-12-26T01:08:20.145Z,2.90
2022-12-26T01:10:24.030Z,2.90
2022-12-26T01:12:51.436Z,2.90
2022-12-26T01:15:18.654Z,2.90
2022-12-26T01:17:45.500Z,2.90
2022-12-26T01:20:12.490Z,3.00
2022-12-26T01:22:39.303Z,3.00
2022-12-26T01:25:06.796Z,3.10
2022-12-26T01:27:33.623Z,3.10
2022-12-26T01:30:00.527Z,3.10
2022-12-26T01:32:27.627Z,3.00
2022-12-26T01:34:55.739Z,3.10
2022-12-26T01:37:25.939Z,3.10
2022-12-26T01:39:52.957Z,3.00
2022-12-26T01:42:22.347Z,3.00
2022-12-26T01:45:20.972Z,3.10
2022-12-26T01:47:53.905Z,3.20
2022-12-26T01:50:27.842Z,3.10
2022-12-26T01:52:58.827Z,3.10
2022-12-26T01:55:26.919Z,3.20
2022-12-26T01:58:03.400Z,3.20
2022-12-26T02:00:31.310Z,3.20
2022-12-26T02:03:17.020Z,3.30
2022-12-26T02:05:44.122Z,3.20
2022-12-26T02:08:19.666Z,3.30
2022-12-26T02:10:56.256Z,3.20
2022-12-26T02:13:25.225Z,3.30
2022-12-26T02:15:52.399Z,3.30
2022-12-26T02:18:19.228Z,3.40
2022-12-26T02:20:51.709Z,3.40
2022-12-26T02:23:21.466Z,3.40
2022-12-26T02:26:15.942Z,3.50
2022-12-26T02:29:01.086Z,3.50
2022-12-26T02:31:42.877Z,3.40
2022-12-26T02:34:17.870Z,3.50
2022-12-26T02:37:18.815Z,3.50
2022-12-26T02:39:53.800Z,3.50
2022-12-26T02:42:44.058Z,3.50
2022-12-26T02:46:03.763Z,3.60
2022-12-26T02:48:33.650Z,3.60
2022-12-26T02:51:48.394Z,3.50
2022-12-26T02:54:55.159Z,3.50
2022-12-26T02:58:15.993Z,3.50
2022-12-26T03:01:04.746Z,3.50
2022-12-26T03:03:53.947Z,3.60
2022-12-26T03:06:46.377Z,3.60
2022-12-26T03:09:35.760Z,3.50
2022-12-26T03:12:27.180Z,3.50
2022-12-26T03:15:03.196Z,3.50
2022-12-26T03:17:40.436Z,3.60
2022-12-26T03:20:12.813Z,3.60
2022-12-26T03:22:44.508Z,3.60
2022-12-26T03:25:44.381Z,3.60
2022-12-26T03:28:13.880Z,3.60
2022-12-26T03:30:50.552Z,3.60
2022-12-26T03:33:48.596Z,3.60
2022-12-26T03:36:55.817Z,3.70
2022-12-26T03:40:06.283Z,3.60
2022-12-26T03:43:24.425Z,3.50
2022-12-26T03:46:23.401Z,3.50
2022-12-26T03:49:24.851Z,3.60
2022-12-26T03:52:39.351Z,3.50
2022-12-26T03:56:03.481Z,3.50
2022-12-26T03:59:07.056Z,3.50
2022-12-26T04:01:55.045Z,3.50
2022-12-26T04:04:43.674Z,3.50
2022-12-26T04:07:34.905Z,3.50
2022-12-26T04:10:29.756Z,3.40
2022-12-26T04:13:17.020Z,3.40
2022-12-26T04:16:19.946Z,3.40
2022-12-26T04:19:11.590Z,3.40
2022-12-26T04:22:16.906Z,3.20
2022-12-26T04:25:18.282Z,3.30
2022-12-26T04:28:03.826Z,3.20
2022-12-26T04:30:53.090Z,3.20
2022-12-26T04:33:45.029Z,3.20
2022-12-26T04:36:38.452Z,3.20
2022-12-26T04:39:27.813Z,3.20
2022-12-26T04:42:15.934Z,3.20
2022-12-26T04:44:44.049Z,3.20
2022-12-26T04:47:11.719Z,3.20
2022-12-26T04:50:01.734Z,3.10
2022-12-26T04:52:49.820Z,3.10
2022-12-26T04:55:17.663Z,3.10
2022-12-26T04:57:44.545Z,3.10
2022-12-26T05:00:12.299Z,3.10
2022-12-26T05:02:57.819Z,3.10
2022-12-26T05:05:43.240Z,3.10
2022-12-26T05:08:49.016Z,3.10
2022-12-26T05:11:15.858Z,3.10
2022-12-26T05:13:42.666Z,3.20
2022-12-26T05:16:28.530Z,3.10
2022-12-26T05:19:13.927Z,3.20
2022-12-26T05:21:59.691Z,4.20
2022-12-26T05:24:51.241Z,3.10
2022-12-26T05:27:36.487Z,3.10
2022-12-26T05:30:03.942Z,3.10
2022-12-26T05:32:49.621Z,3.10
2022-12-26T05:35:16.453Z,3.10
2022-12-26T05:37:43.432Z,3.10
2022-12-26T05:40:10.669Z,3.10
2022-12-26T05:42:37.461Z,3.10
2022-12-26T05:45:04.602Z,3.20
2022-12-26T05:47:31.672Z,3.20
2022-12-26T05:49:58.707Z,3.20
2022-12-26T05:52:25.492Z,3.10
2022-12-26T05:54:52.308Z,3.10
2022-12-26T05:57:19.097Z,3.10
2022-12-26T05:59:45.884Z,3.10
2022-12-26T06:02:12.829Z,3.10
2022-12-26T06:04:40.024Z,3.10
2022-12-26T06:07:08.128Z,3.20
2022-12-26T06:09:34.966Z,3.20
2022-12-26T06:12:01.779Z,3.10
2022-12-26T06:14:28.600Z,3.10
2022-12-26T06:16:55.682Z,3.10
2022-12-26T06:19:22.691Z,3.10
2022-12-26T06:21:49.465Z,3.10
2022-12-26T06:24:16.368Z,3.10
2022-12-26T06:26:43.191Z,3.10
2022-12-26T06:29:10.072Z,3.10
2022-12-26T06:31:36.983Z,3.10
2022-12-26T06:34:04.000Z,3.10
2022-12-26T06:36:30.827Z,3.10
2022-12-26T06:38:58.017Z,3.20
2022-12-26T06:41:25.893Z,3.20
2022-12-26T06:43:53.118Z,3.20
2022-12-26T06:46:22.497Z,3.10
2022-12-26T06:48:49.890Z,4.50
2022-12-26T06:51:19.792Z,3.10
2022-12-26T06:53:47.041Z,3.20
2022-12-26T06:56:25.741Z,3.20
2022-12-26T06:58:57.582Z,3.10
2022-12-26T07:01:26.166Z,3.00
2022-12-26T07:03:54.471Z,3.10
2022-12-26T07:06:25.676Z,3.10
2022-12-26T07:08:59.387Z,3.20
2022-12-26T07:11:29.062Z,3.30
2022-12-26T07:13:56.190Z,3.20
2022-12-26T07:16:24.067Z,3.40
2022-12-26T07:18:55.857Z,3.40
2022-12-26T07:21:23.401Z,3.40
2022-12-26T07:23:50.764Z,3.40
2022-12-26T07:26:18.050Z,3.40
2022-12-26T07:28:45.006Z,3.50
2022-12-26T07:31:19.231Z,3.50
2022-12-26T07:33:53.283Z,3.60
2022-12-26T07:36:20.901Z,3.60
2022-12-26T07:38:48.374Z,3.50
2022-12-26T07:41:34.224Z,3.60
2022-12-26T07:44:01.383Z,3.60
2022-12-26T07:46:28.294Z,3.60
2022-12-26T07:48:55.159Z,3.70
2022-12-26T07:51:22.249Z,3.70
2022-12-26T07:53:49.195Z,3.70
2022-12-26T07:56:16.585Z,3.70
2022-12-26T07:58:43.544Z,3.80
2022-12-26T08:01:10.616Z,3.80
2022-12-26T08:03:38.505Z,3.80
2022-12-26T08:06:05.726Z,3.80
2022-12-26T08:08:32.500Z,3.70
2022-12-26T08:11:07.299Z,3.70
2022-12-26T08:13:35.066Z,3.70
2022-12-26T08:16:06.824Z,3.70
2022-12-26T08:18:34.582Z,3.70
2022-12-26T08:21:01.515Z,3.80
2022-12-26T08:23:28.615Z,3.80
2022-12-26T08:25:55.641Z,3.80
2022-12-26T08:28:23.180Z,3.80
2022-12-26T08:30:50.313Z,3.80
2022-12-26T08:33:17.503Z,3.90
2022-12-26T08:35:45.012Z,3.80
2022-12-26T08:38:11.831Z,4.10
2022-12-26T08:40:43.706Z,4.10
2022-12-26T08:43:30.233Z,4.10
2022-12-26T08:46:00.584Z,4.10
2022-12-26T08:48:27.827Z,4.30
2022-12-26T08:51:00.123Z,4.20
2022-12-26T08:53:29.206Z,4.40
2022-12-26T08:55:56.535Z,4.40
2022-12-26T08:58:23.420Z,4.50
2022-12-26T09:03:22.542Z,4.40
2022-12-26T09:05:49.483Z,4.70
2022-12-26T09:08:16.435Z,4.70
2022-12-26T09:10:43.216Z,4.90
2022-12-26T09:15:38.317Z,5.00
2022-12-26T09:18:05.267Z,5.10
2022-12-26T09:20:33.200Z,5.10
2022-12-26T09:23:00.086Z,5.10
2022-12-26T09:25:27.028Z,5.20
2022-12-26T09:27:59.093Z,5.30
2022-12-26T09:30:26.768Z,5.20
2022-12-26T09:32:54.042Z,5.10
2022-12-26T09:35:20.963Z,5.10
2022-12-26T09:37:47.906Z,5.20
2022-12-26T09:40:28.538Z,5.20
2022-12-26T09:43:25.385Z,5.30
2022-12-26T09:45:59.792Z,5.30
2022-12-26T09:48:29.585Z,5.40
2022-12-26T09:50:56.564Z,5.40
2022-12-26T09:53:43.909Z,5.40
2022-12-26T09:57:01.315Z,5.30
2022-12-26T09:59:17.910Z,5.40
2022-12-26T10:01:45.077Z,5.50
2022-12-26T10:04:29.691Z,5.50
2022-12-26T10:07:31.762Z,5.50
2022-12-26T10:09:58.547Z,5.60
2022-12-26T10:12:35.341Z,5.70
2022-12-26T10:15:29.616Z,5.60
2022-12-26T10:18:12.257Z,5.60
2022-12-26T10:20:47.892Z,5.60
2022-12-26T10:23:21.820Z,5.60
2022-12-26T10:26:13.033Z,5.70
2022-12-26T10:29:07.287Z,5.70
2022-12-26T10:31:51.683Z,5.80
2022-12-26T10:34:20.502Z,5.80
2022-12-26T10:37:22.712Z,5.80
2022-12-26T10:39:56.557Z,6.00
2022-12-26T10:42:44.509Z,6.00
2022-12-26T10:45:48.246Z,6.00
2022-12-26T10:48:16.671Z,6.00
2022-12-26T10:50:49.449Z,5.90
2022-12-26T10:53:17.636Z,6.00
2022-12-26T10:55:44.482Z,6.00
2022-12-26T10:58:17.278Z,6.00
2022-12-26T11:00:44.276Z,6.00
2022-12-26T11:03:17.235Z,6.00
2022-12-26T11:06:06.969Z,6.00
2022-12-26T11:08:49.308Z,6.00
2022-12-26T11:11:46.052Z,6.00
2022-12-26T11:14:36.659Z,6.00
2022-12-26T11:17:09.686Z,6.00
2022-12-26T11:19:41.310Z,5.90
2022-12-26T11:22:34.612Z,6.00
2022-12-26T11:25:12.298Z,6.00
2022-12-26T11:27:41.698Z,6.10
2022-12-26T11:30:14.330Z,6.20
2022-12-26T11:32:43.052Z,6.30
2022-12-26T11:35:25.522Z,6.30
2022-12-26T11:37:57.596Z,6.40
2022-12-26T11:40:33.181Z,6.50
2022-12-26T11:43:02.474Z,6.70
2022-12-26T11:45:37.105Z,6.70
2022-12-26T11:48:18.491Z,7.20
2022-12-26T11:50:46.742Z,7.50
2022-12-26T11:53:18.879Z,8.10
2022-12-26T11:55:57.005Z,8.40
2022-12-26T11:58:27.604Z,8.60
2022-12-26T12:01:00.516Z,8.40
2022-12-26T12:03:32.974Z,8.30
2022-12-26T12:06:05.692Z,8.50
2022-12-26T12:08:51.872Z,9.20
2022-12-26T12:11:33.773Z,9.10
2022-12-26T12:14:15.894Z,9.50
2022-12-26T12:17:10.949Z,9.00
2022-12-26T12:20:32.336Z,8.70
2022-12-26T12:23:23.489Z,8.00
2022-12-26T12:26:02.207Z,7.80
2022-12-26T12:28:31.851Z,7.60
2022-12-26T12:31:04.597Z,7.50
2022-12-26T12:33:34.449Z,7.50
2022-12-26T12:36:07.108Z,7.50
2022-12-26T12:38:36.649Z,7.40
2022-12-26T12:41:08.905Z,7.40
2022-12-26T12:44:05.625Z,7.50
2022-12-26T12:46:42.479Z,7.60
2022-12-26T12:49:23.974Z,9.10
2022-12-26T12:52:12.047Z,7.60
2022-12-26T12:54:56.819Z,7.40
2022-12-26T12:57:31.191Z,7.40
2022-12-26T13:00:24.296Z,7.50
2022-12-26T13:02:59.877Z,7.40
2022-12-26T13:05:49.011Z,7.40
2022-12-26T13:08:28.083Z,7.20
2022-12-26T13:11:33.168Z,7.20
2022-12-26T13:14:07.834Z,7.30
2022-12-26T13:16:43.907Z,7.20
2022-12-26T13:19:18.322Z,7.50
2022-12-26T13:21:47.310Z,7.90
2022-12-26T13:24:34.990Z,8.20
2022-12-26T13:27:20.310Z,8.40
2022-12-26T13:29:49.005Z,8.40
2022-12-26T13:32:29.071Z,8.50
2022-12-26T13:34:59.527Z,8.50
2022-12-26T13:37:38.031Z,8.70
2022-12-26T13:40:17.504Z,8.80
2022-12-26T13:43:18.751Z,8.70
2022-12-26T13:45:58.445Z,8.60
2022-12-26T13:48:30.370Z,8.10
2022-12-26T13:51:02.236Z,8.00
2022-12-26T13:53:34.406Z,8.00
2022-12-26T13:56:15.068Z,7.70
2022-12-26T13:59:11.811Z,7.60
2022-12-26T14:02:19.608Z,7.50
2022-12-26T14:04:55.408Z,7.40
2022-12-26T14:07:55.245Z,7.30
2022-12-26T14:11:01.064Z,7.20
2022-12-26T14:13:46.579Z,7.10
2022-12-26T14:16:37.398Z,7.20
2022-12-26T14:19:25.270Z,7.20
2022-12-26T14:22:23.093Z,7.20
2022-12-26T14:25:24.658Z,7.10
2022-12-26T14:28:22.466Z,7.00
2022-12-26T14:31:13.001Z,7.20
2022-12-26T14:33:47.008Z,7.10
2022-12-26T14:36:25.141Z,7.10
2022-12-26T14:39:19.271Z,7.10
2022-12-26T14:42:26.398Z,7.20
2022-12-26T14:44:58.085Z,7.10
2022-12-26T14:47:49.760Z,7.00
2022-12-26T14:50:41.186Z,7.00
2022-12-26T14:53:20.714Z,7.00
2022-12-26T14:55:55.120Z,7.00
2022-12-26T14:58:39.201Z,7.00
2022-12-26T15:01:15.868Z,7.00
2022-12-26T15:03:45.622Z,6.90
2022-12-26T15:06:21.530Z,6.80
2022-12-26T15:08:54.243Z,6.80
2022-12-26T15:11:29.812Z,6.90
2022-12-26T15:14:21.056Z,7.10
2022-12-26T15:17:09.361Z,6.90
2022-12-26T15:20:00.160Z,7.00
2022-12-26T15:22:54.521Z,7.00
2022-12-26T15:25:39.248Z,6.90
2022-12-26T15:28:15.679Z,6.90
2022-12-26T15:30:56.885Z,6.80
2022-12-26T15:33:50.515Z,6.90
2022-12-26T15:36:26.842Z,6.90
2022-12-26T15:39:15.446Z,6.80
2022-12-26T15:42:23.067Z,6.80
2022-12-26T15:44:49.826Z,6.80
2022-12-26T15:47:48.133Z,6.70
2022-12-26T15:50:24.292Z,6.70
2022-12-26T15:53:06.920Z,6.90
2022-12-26T15:55:33.670Z,6.80
2022-12-26T15:58:11.916Z,6.80
2022-12-26T16:00:49.937Z,6.90
2022-12-26T16:03:19.841Z,8.70
2022-12-26T16:05:51.980Z,6.90
2022-12-26T16:08:48.404Z,6.90
2022-12-26T16:11:19.974Z,6.90
2022-12-26T16:13:56.292Z,7.00
2022-12-26T16:16:25.865Z,7.00
2022-12-26T16:18:52.791Z,7.10
2022-12-26T16:21:40.833Z,7.00
2022-12-26T16:24:12.907Z,7.00
2022-12-26T16:26:43.530Z,7.10
2022-12-26T16:29:18.830Z,7.10
2022-12-26T16:31:46.210Z,7.10
2022-12-26T16:34:20.899Z,7.20
2022-12-26T16:36:50.447Z,7.20
2022-12-26T16:39:23.901Z,7.20
2022-12-26T16:42:01.704Z,7.30
2022-12-26T16:44:40.680Z,7.20
2022-12-26T16:47:13.139Z,7.10
2022-12-26T16:49:45.129Z,7.30
2022-12-26T16:52:40.563Z,7.30
2022-12-26T16:55:31.341Z,7.30
2022-12-26T16:58:01.373Z,7.30
2022-12-26T17:00:28.400Z,7.40
2022-12-26T17:02:57.939Z,7.40
2022-12-26T17:05:30.083Z,7.50
2022-12-26T17:08:00.246Z,7.40
2022-12-26T17:10:33.651Z,7.40
2022-12-26T17:13:03.962Z,7.40
2022-12-26T17:15:47.865Z,7.40
2022-12-26T17:18:29.690Z,7.40
2022-12-26T17:21:14.639Z,7.40
2022-12-26T17:23:42.227Z,7.60
2022-12-26T17:26:17.964Z,7.50
2022-12-26T17:28:44.918Z,7.50
2022-12-26T17:31:18.610Z,7.60
2022-12-26T17:33:48.206Z,7.50
2022-12-26T17:39:20.851Z,7.60
2022-12-26T17:41:57.878Z,7.60
2022-12-26T17:44:36.262Z,7.50
2022-12-26T17:47:28.430Z,7.50
2022-12-26T17:49:56.117Z,7.50
2022-12-26T17:52:27.177Z,7.50
2022-12-26T17:54:56.392Z,7.40
2022-12-26T17:57:25.774Z,7.50
2022-12-26T17:59:53.708Z,7.50
2022-12-26T18:02:21.652Z,7.40
2022-12-26T18:04:50.227Z,7.30
2022-12-26T18:07:31.076Z,7.30
2022-12-26T18:10:00.218Z,7.20
2022-12-26T18:12:27.195Z,7.30
2022-12-26T18:15:01.087Z,7.30
2022-12-26T18:17:31.169Z,7.40
2022-12-26T18:22:25.880Z,7.30
2022-12-26T18:24:52.772Z,7.40
2022-12-26T18:27:26.934Z,7.40
2022-12-26T18:29:53.794Z,7.40
2022-12-26T18:32:30.031Z,7.30
2022-12-26T18:34:58.225Z,7.20
2022-12-26T18:37:27.949Z,7.30
2022-12-26T18:39:55.048Z,7.20
2022-12-26T18:42:22.032Z,7.20
2022-12-26T18:44:48.832Z,7.10
2022-12-26T18:47:17.831Z,7.20
2022-12-26T18:49:45.228Z,7.10
2022-12-26T18:52:17.843Z,7.00
2022-12-26T18:54:45.481Z,7.10
2022-12-26T18:57:18.916Z,7.10
2022-12-26T18:59:48.203Z,7.20
2022-12-26T19:02:19.512Z,7.10
2022-12-26T19:04:48.666Z,7.00
2022-12-26T19:07:17.278Z,6.90
2022-12-26T19:09:46.282Z,7.00
2022-12-26T19:12:13.699Z,6.90
2022-12-26T19:14:41.568Z,6.90
2022-12-26T19:17:08.350Z,6.90
2022-12-26T19:19:35.257Z,8.10
2022-12-26T19:22:02.146Z,6.80
2022-12-26T19:24:28.939Z,6.90
2022-12-26T19:26:55.804Z,6.90
2022-12-26T19:29:22.853Z,6.90
2022-12-26T19:31:49.685Z,6.80
2022-12-26T19:34:16.547Z,6.90
2022-12-26T19:36:43.457Z,6.80
2022-12-26T19:39:10.296Z,6.80
2022-12-26T19:41:37.490Z,6.80
2022-12-26T19:44:04.373Z,6.80
2022-12-26T19:46:31.175Z,6.80
2022-12-26T19:48:58.021Z,6.80
2022-12-26T19:51:24.844Z,6.90
2022-12-26T19:53:51.745Z,6.80
2022-12-26T19:56:21.330Z,6.80
2022-12-26T19:58:54.566Z,6.90
2022-12-26T20:01:29.516Z,6.80
2022-12-26T20:04:02.185Z,6.80
2022-12-26T20:06:32.573Z,6.70
2022-12-26T20:09:01.782Z,6.80
2022-12-26T20:11:31.527Z,6.70
2022-12-26T20:14:00.623Z,6.70
2022-12-26T20:19:15.330Z,6.70
2022-12-26T20:21:42.163Z,6.10
2022-12-26T20:24:11.380Z,6.70
2022-12-26T20:26:38.817Z,6.70
2022-12-26T20:29:05.898Z,6.70
2022-12-26T20:31:33.462Z,6.70
2022-12-26T20:34:00.763Z,6.80
2022-12-26T20:36:29.610Z,6.80
2022-12-26T20:38:58.883Z,6.80
2022-12-26T20:41:26.742Z,6.90
2022-12-26T20:43:53.781Z,6.70
2022-12-26T20:46:30.094Z,6.80
2022-12-26T20:48:56.900Z,6.80
2022-12-26T20:51:36.467Z,6.80
2022-12-26T20:54:05.231Z,6.70
2022-12-26T20:56:32.065Z,6.70
2022-12-26T20:58:59.769Z,6.70
2022-12-26T21:01:27.842Z,6.70
2022-12-26T21:03:56.013Z,4.90
2022-12-26T21:06:29.272Z,6.70
2022-12-26T21:08:57.834Z,6.70
2022-12-26T21:11:30.671Z,6.80
2022-12-26T21:14:06.182Z,6.70
2022-12-26T21:16:41.962Z,6.80
2022-12-26T21:19:14.994Z,6.60
2022-12-26T21:21:45.808Z,6.80
2022-12-26T21:24:32.036Z,6.70
2022-12-26T21:26:59.089Z,6.70
2022-12-26T21:29:28.303Z,6.70
2022-12-26T21:31:56.087Z,6.70
2022-12-26T21:34:27.553Z,6.70
2022-12-26T21:37:13.927Z,6.70
2022-12-26T21:39:41.344Z,6.70
2022-12-26T21:42:09.433Z,6.70
2022-12-26T21:44:36.349Z,6.70
2022-12-26T21:47:04.594Z,6.70
2022-12-26T21:49:31.718Z,6.80
2022-12-26T21:51:58.759Z,6.80
2022-12-26T21:54:48.747Z,9.10
2022-12-26T21:57:17.241Z,6.90
2022-12-26T21:59:56.268Z,6.90
2022-12-26T22:02:56.145Z,6.80
2022-12-26T22:05:26.067Z,6.80
2022-12-26T22:07:58.371Z,6.90
2022-12-26T22:10:50.171Z,6.90
2022-12-26T22:13:18.680Z,6.80
2022-12-26T22:16:07.916Z,6.80
2022-12-26T22:18:43.625Z,6.80
2022-12-26T22:21:17.389Z,6.80
2022-12-26T22:23:45.003Z,6.90
2022-12-26T22:26:15.002Z,6.90
2022-12-26T22:28:42.690Z,6.90
2022-12-26T22:31:25.001Z,6.80
2022-12-26T22:34:07.283Z,6.90
2022-12-26T22:36:36.010Z,6.90
2022-12-26T22:39:03.954Z,6.90
2022-12-26T22:41:30.978Z,6.90
2022-12-26T22:43:57.961Z,7.00
2022-12-26T22:46:25.391Z,6.80
2022-12-26T22:48:52.352Z,6.90
2022-12-26T22:51:21.541Z,6.90
2022-12-26T22:53:48.704Z,6.90
2022-12-26T22:56:15.913Z,6.90
2022-12-26T22:58:43.649Z,6.80
2022-12-26T23:01:18.766Z,6.80
2022-12-26T23:03:46.215Z,6.80
2022-12-26T23:06:23.335Z,6.80
2022-12-26T23:08:52.993Z,6.90
2022-12-26T23:11:20.541Z,6.90
2022-12-26T23:13:47.981Z,7.00
2022-12-26T23:16:15.033Z,7.00
2022-12-26T23:19:09.921Z,7.00
2022-12-26T23:21:39.611Z,7.00
2022-12-26T23:24:28.202Z,6.90
2022-12-26T23:27:26.490Z,6.90
2022-12-26T23:30:12.029Z,6.80
2022-12-26T23:32:40.834Z,6.80
2022-12-26T23:35:09.628Z,6.80
2022-12-26T23:37:37.412Z,6.90
2022-12-26T23:40:04.963Z,6.90
2022-12-26T23:42:31.855Z,6.80
2022-12-26T23:44:58.650Z,6.80
2022-12-26T23:47:25.741Z,6.80
2022-12-26T23:49:52.709Z,6.80
2022-12-26T23:52:19.536Z,6.70
2022-12-26T23:54:46.388Z,6.70
2022-12-26T23:57:13.175Z,6.70
2022-12-26T23:59:39.996Z,6.60
